createdAt,value
2017-06-24T00:00:00.111Z,0
2017-06-24T00:00:26.219Z,0
2017-06-24T00:00:52.307Z,0
2017-06-24T00:01:18.408Z,0
2017-06-24T00:01:44.514Z,0
2017-06-24T00:02:10.608Z,0
2017-06-24T00:02:36.704Z,0
2017-06-24T00:03:02.810Z,0
2017-06-24T00:03:28.904Z,0
2017-06-24T00:03:54.995Z,0
2017-06-24T00:04:21.107Z,0
2017-06-24T00:04:47.203Z,0
2017-06-24T00:05:13.294Z,0
2017-06-24T00:05:39.447Z,0
2017-06-24T00:06:05.575Z,0
2017-06-24T00:06:31.675Z,0
2017-06-24T00:06:57.820Z,0
2017-06-24T00:07:23.912Z,0
2017-06-24T00:07:50.022Z,0
2017-06-24T00:08:16.146Z,0
2017-06-24T00:08:42.262Z,0
2017-06-24T00:09:08.374Z,0
2017-06-24T00:09:34.472Z,0
2017-06-24T00:10:00.587Z,0
2017-06-24T00:10:26.691Z,0
2017-06-24T00:10:52.826Z,0
2017-06-24T00:11:18.912Z,0
2017-06-24T00:11:45.041Z,0
2017-06-24T00:12:11.134Z,0
2017-06-24T00:12:37.242Z,0
2017-06-24T00:13:03.341Z,0
2017-06-24T00:13:29.433Z,0
2017-06-24T00:13:55.537Z,0
2017-06-24T00:14:21.700Z,0
2017-06-24T00:14:47.789Z,0
2017-06-24T00:15:13.916Z,0
2017-06-24T00:15:40.023Z,0
2017-06-24T00:16:06.114Z,0
2017-06-24T00:16:32.235Z,0
2017-06-24T00:16:58.343Z,0
2017-06-24T00:17:24.487Z,0
2017-06-24T00:17:50.595Z,0
2017-06-24T00:18:16.684Z,0
2017-06-24T00:18:42.786Z,0
2017-06-24T00:19:08.921Z,0
2017-06-24T00:19:35.012Z,0
2017-06-24T00:20:01.159Z,0
2017-06-24T00:20:27.265Z,0
2017-06-24T00:20:53.359Z,0
2017-06-24T00:21:19.472Z,0
2017-06-24T00:21:45.581Z,0
2017-06-24T00:22:11.706Z,0
2017-06-24T00:22:37.797Z,0
2017-06-24T00:23:03.933Z,0
2017-06-24T00:23:30.053Z,0
2017-06-24T00:23:56.216Z,0
2017-06-24T00:24:22.311Z,0
2017-06-24T00:24:48.404Z,0
2017-06-24T00:25:14.517Z,0
2017-06-24T00:25:40.610Z,0
2017-06-24T00:26:06.701Z,0
2017-06-24T00:26:32.810Z,0
2017-06-24T00:26:58.909Z,0
2017-06-24T00:27:25.025Z,0
2017-06-24T00:27:51.130Z,0
2017-06-24T00:28:17.237Z,0
2017-06-24T00:28:43.333Z,0
2017-06-24T00:29:09.432Z,0
2017-06-24T00:29:35.548Z,0
2017-06-24T00:30:01.657Z,0
2017-06-24T00:30:27.786Z,0
2017-06-24T00:30:53.878Z,0
2017-06-24T00:31:19.980Z,0
2017-06-24T00:31:46.088Z,0
2017-06-24T00:32:12.227Z,0
2017-06-24T00:32:38.332Z,0
2017-06-24T00:33:04.464Z,0
2017-06-24T00:33:30.552Z,0
2017-06-24T00:33:56.672Z,0
2017-06-24T00:34:22.796Z,0
2017-06-24T00:34:48.899Z,0
2017-06-24T00:35:15.005Z,0
2017-06-24T00:35:41.092Z,0
2017-06-24T00:36:07.221Z,0
2017-06-24T00:36:33.328Z,0
2017-06-24T00:36:59.418Z,0
2017-06-24T00:37:25.515Z,0
2017-06-24T00:37:51.650Z,0
2017-06-24T00:38:17.743Z,0
2017-06-24T00:38:43.833Z,0
2017-06-24T00:39:09.944Z,0
2017-06-24T00:39:36.042Z,0
2017-06-24T00:40:02.146Z,0
2017-06-24T00:40:28.235Z,0
2017-06-24T00:40:54.332Z,0
2017-06-24T00:41:20.466Z,0
2017-06-24T00:41:46.563Z,0
2017-06-24T00:42:12.675Z,0
2017-06-24T00:42:38.784Z,0
2017-06-24T00:43:04.879Z,0
2017-06-24T00:43:30.968Z,0
2017-06-24T00:43:57.077Z,0
2017-06-24T00:44:23.177Z,0
2017-06-24T00:44:49.294Z,0
2017-06-24T00:45:15.444Z,0
2017-06-24T00:45:41.529Z,0
2017-06-24T00:46:07.663Z,0
2017-06-24T00:46:33.765Z,0
2017-06-24T00:46:59.872Z,0
2017-06-24T00:47:25.964Z,0
2017-06-24T00:47:52.062Z,0
2017-06-24T00:48:18.169Z,0
2017-06-24T00:48:44.262Z,0
2017-06-24T00:49:10.355Z,0
2017-06-24T00:49:36.461Z,0
2017-06-24T00:50:02.587Z,0
2017-06-24T00:50:28.729Z,0
2017-06-24T00:50:54.857Z,0
2017-06-24T00:51:20.951Z,0
2017-06-24T00:51:47.059Z,0
2017-06-24T00:52:13.180Z,0
2017-06-24T00:52:39.273Z,0
2017-06-24T00:53:05.385Z,0
2017-06-24T00:53:31.506Z,0
2017-06-24T00:53:57.596Z,0
2017-06-24T00:54:23.704Z,0
2017-06-24T00:54:49.832Z,0
2017-06-24T00:55:15.947Z,0
2017-06-24T00:55:42.086Z,0
2017-06-24T00:56:08.208Z,0
2017-06-24T00:56:34.305Z,0
2017-06-24T00:57:00.427Z,0
2017-06-24T00:57:26.520Z,0
2017-06-24T00:57:52.627Z,0
2017-06-24T00:58:18.754Z,0
2017-06-24T00:58:44.845Z,0
2017-06-24T00:59:10.951Z,0
2017-06-24T00:59:37.056Z,0
2017-06-24T01:00:03.169Z,0
2017-06-24T01:00:29.268Z,0
2017-06-24T01:00:55.377Z,0
2017-06-24T01:01:21.467Z,0
2017-06-24T01:01:47.564Z,0
2017-06-24T01:02:13.662Z,0
2017-06-24T01:02:39.764Z,0
2017-06-24T01:03:05.871Z,0
2017-06-24T01:03:31.959Z,0
2017-06-24T01:03:58.057Z,0
2017-06-24T01:04:24.166Z,0
2017-06-24T01:04:50.275Z,0
2017-06-24T01:05:16.372Z,0
2017-06-24T01:05:42.480Z,0
2017-06-24T01:06:08.602Z,0
2017-06-24T01:06:34.693Z,0
2017-06-24T01:07:00.832Z,0
2017-06-24T01:07:26.930Z,0
2017-06-24T01:07:53.020Z,0
2017-06-24T01:08:19.129Z,0
2017-06-24T01:08:45.230Z,0
2017-06-24T01:09:11.389Z,0
2017-06-24T01:09:37.471Z,0
2017-06-24T01:10:03.634Z,0
2017-06-24T01:10:29.722Z,0
2017-06-24T01:10:55.822Z,0
2017-06-24T01:11:21.930Z,0
2017-06-24T01:11:48.021Z,0
2017-06-24T01:12:14.121Z,0
2017-06-24T01:12:40.224Z,0
2017-06-24T01:13:06.344Z,0
2017-06-24T01:13:32.474Z,0
2017-06-24T01:13:58.563Z,0
2017-06-24T01:14:24.660Z,0
2017-06-24T01:14:50.794Z,0
2017-06-24T01:15:16.888Z,0
2017-06-24T01:15:43.006Z,0
2017-06-24T01:16:09.113Z,0
2017-06-24T01:16:35.235Z,0
2017-06-24T01:17:01.325Z,0
2017-06-24T01:17:27.458Z,0
2017-06-24T01:17:53.555Z,0
2017-06-24T01:18:19.670Z,0
2017-06-24T01:18:45.777Z,0
2017-06-24T01:19:11.870Z,0
2017-06-24T01:19:37.979Z,0
2017-06-24T01:20:04.075Z,0
2017-06-24T01:20:30.165Z,0
2017-06-24T01:20:56.274Z,0
2017-06-24T01:21:22.400Z,0
2017-06-24T01:21:48.537Z,0
2017-06-24T01:22:14.673Z,0
2017-06-24T01:22:40.802Z,0
2017-06-24T01:23:06.918Z,0
2017-06-24T01:23:33.020Z,0
2017-06-24T01:23:59.129Z,0
2017-06-24T01:24:25.221Z,0
2017-06-24T01:24:51.316Z,0
2017-06-24T01:25:17.432Z,0
2017-06-24T01:25:43.539Z,0
2017-06-24T01:26:09.639Z,0
2017-06-24T01:26:35.730Z,0
2017-06-24T01:27:01.859Z,0
2017-06-24T01:27:27.965Z,0
2017-06-24T01:27:54.081Z,0
2017-06-24T01:28:20.206Z,0
2017-06-24T01:28:46.313Z,0
2017-06-24T01:29:12.403Z,0
2017-06-24T01:29:38.527Z,0
2017-06-24T01:30:04.632Z,0
2017-06-24T01:30:30.728Z,0
2017-06-24T01:30:56.818Z,0
2017-06-24T01:31:22.929Z,0
2017-06-24T01:31:49.025Z,0
2017-06-24T01:32:15.115Z,0
2017-06-24T01:32:41.222Z,0
2017-06-24T01:33:07.322Z,0
2017-06-24T01:33:33.440Z,0
2017-06-24T01:33:59.543Z,0
2017-06-24T01:34:25.675Z,0
2017-06-24T01:34:51.816Z,0
2017-06-24T01:35:17.918Z,0
2017-06-24T01:35:44.012Z,0
2017-06-24T01:36:10.121Z,0
2017-06-24T01:36:36.221Z,0
2017-06-24T01:37:02.314Z,0
2017-06-24T01:37:28.418Z,0
2017-06-24T01:37:54.553Z,0
2017-06-24T01:38:20.641Z,0
2017-06-24T01:38:46.742Z,0
2017-06-24T01:39:12.848Z,0
2017-06-24T01:39:38.938Z,0
2017-06-24T01:40:05.037Z,0
2017-06-24T01:40:31.143Z,0
2017-06-24T01:40:57.266Z,0
2017-06-24T01:41:23.372Z,0
2017-06-24T01:41:49.464Z,0
2017-06-24T01:42:15.563Z,0
2017-06-24T01:42:41.670Z,0
2017-06-24T01:43:07.789Z,0
2017-06-24T01:43:33.912Z,0
2017-06-24T01:44:00.019Z,0
2017-06-24T01:44:26.113Z,0
2017-06-24T01:44:52.204Z,0
2017-06-24T01:45:18.312Z,0
2017-06-24T01:45:44.408Z,0
2017-06-24T01:46:10.524Z,0
2017-06-24T01:46:36.632Z,0
2017-06-24T01:47:02.726Z,0
2017-06-24T01:47:28.857Z,0
2017-06-24T01:47:55.005Z,0
2017-06-24T01:48:21.095Z,0
2017-06-24T01:48:47.202Z,0
2017-06-24T01:49:13.298Z,0
2017-06-24T01:49:39.390Z,0
2017-06-24T01:50:05.495Z,0
2017-06-24T01:50:31.595Z,0
2017-06-24T01:50:57.685Z,0
2017-06-24T01:51:23.842Z,0
2017-06-24T01:51:49.976Z,0
2017-06-24T01:52:16.070Z,0
2017-06-24T01:52:42.167Z,0
2017-06-24T01:53:08.257Z,0
2017-06-24T01:53:34.389Z,0
2017-06-24T01:54:00.571Z,0
2017-06-24T01:54:26.662Z,0
2017-06-24T01:54:52.792Z,0
2017-06-24T01:55:18.925Z,0
2017-06-24T01:55:45.014Z,0
2017-06-24T01:56:11.115Z,0
2017-06-24T01:56:37.246Z,0
2017-06-24T01:57:03.336Z,0
2017-06-24T01:57:29.458Z,0
2017-06-24T01:57:55.581Z,0
2017-06-24T01:58:21.685Z,0
2017-06-24T01:58:47.792Z,0
2017-06-24T01:59:13.877Z,0
2017-06-24T01:59:39.977Z,0
2017-06-24T02:00:06.112Z,0
2017-06-24T02:00:32.227Z,0
2017-06-24T02:00:58.349Z,0
2017-06-24T02:01:24.457Z,0
2017-06-24T02:01:50.546Z,0
2017-06-24T02:02:16.637Z,0
2017-06-24T02:02:42.748Z,0
2017-06-24T02:03:08.847Z,0
2017-06-24T02:03:34.972Z,0
2017-06-24T02:04:01.064Z,0
2017-06-24T02:04:27.187Z,0
2017-06-24T02:04:53.293Z,0
2017-06-24T02:05:19.386Z,0
2017-06-24T02:05:45.476Z,0
2017-06-24T02:06:11.628Z,0
2017-06-24T02:06:37.858Z,0
2017-06-24T02:07:03.979Z,0
2017-06-24T02:07:30.088Z,0
2017-06-24T02:07:56.215Z,0
2017-06-24T02:08:22.307Z,0
2017-06-24T02:08:48.409Z,0
2017-06-24T02:09:14.553Z,0
2017-06-24T02:09:40.721Z,0
2017-06-24T02:10:06.843Z,0
2017-06-24T02:10:32.959Z,0
2017-06-24T02:10:59.066Z,0
2017-06-24T02:11:25.346Z,0
2017-06-24T02:11:51.462Z,0
2017-06-24T02:12:17.590Z,0
2017-06-24T02:12:43.724Z,0
2017-06-24T02:13:09.813Z,0
2017-06-24T02:13:42.206Z,0
2017-06-24T02:14:08.313Z,0
2017-06-24T02:14:34.402Z,0
2017-06-24T02:15:00.500Z,0
2017-06-24T02:15:26.633Z,0
2017-06-24T02:15:52.729Z,0
2017-06-24T02:16:18.821Z,0
2017-06-24T02:16:44.932Z,0
2017-06-24T02:17:11.056Z,0
2017-06-24T02:17:37.148Z,0
2017-06-24T02:18:03.253Z,0
2017-06-24T02:18:29.354Z,0
2017-06-24T02:18:55.470Z,0
2017-06-24T02:19:21.598Z,0
2017-06-24T02:19:47.732Z,0
2017-06-24T02:20:13.827Z,0
2017-06-24T02:20:39.924Z,0
2017-06-24T02:21:06.018Z,0
2017-06-24T02:21:32.125Z,0
2017-06-24T02:21:58.277Z,0
2017-06-24T02:22:24.395Z,0
2017-06-24T02:22:50.521Z,0
2017-06-24T02:23:16.682Z,0
2017-06-24T02:23:42.794Z,0
2017-06-24T02:24:08.894Z,0
2017-06-24T02:24:35.027Z,0
2017-06-24T02:25:01.123Z,0
2017-06-24T02:25:27.222Z,0
2017-06-24T02:25:53.320Z,0
2017-06-24T02:26:19.425Z,0
2017-06-24T02:26:45.535Z,0
2017-06-24T02:27:11.619Z,0
2017-06-24T02:27:37.719Z,0
2017-06-24T02:28:03.830Z,0
2017-06-24T02:28:29.947Z,0
2017-06-24T02:28:56.047Z,0
2017-06-24T02:29:22.150Z,0
2017-06-24T02:29:48.243Z,0
2017-06-24T02:30:14.335Z,0
2017-06-24T02:30:40.472Z,0
2017-06-24T02:31:06.568Z,0
2017-06-24T02:31:32.671Z,0
2017-06-24T02:31:58.791Z,0
2017-06-24T02:32:24.913Z,0
2017-06-24T02:32:51.047Z,0
2017-06-24T02:33:17.139Z,0
2017-06-24T02:33:43.228Z,0
2017-06-24T02:34:09.364Z,0
2017-06-24T02:34:35.491Z,0
2017-06-24T02:35:01.657Z,0
2017-06-24T02:35:27.761Z,0
2017-06-24T02:35:53.917Z,0
2017-06-24T02:36:20.033Z,0
2017-06-24T02:36:46.160Z,0
2017-06-24T02:37:12.279Z,0
2017-06-24T02:37:38.415Z,0
2017-06-24T02:38:04.514Z,0
2017-06-24T02:38:30.606Z,0
2017-06-24T02:38:56.713Z,0
2017-06-24T02:39:22.845Z,0
2017-06-24T02:39:48.951Z,0
2017-06-24T02:40:15.053Z,0
2017-06-24T02:40:41.191Z,0
2017-06-24T02:41:07.277Z,0
2017-06-24T02:41:33.407Z,0
2017-06-24T02:41:59.509Z,0
2017-06-24T02:42:25.623Z,0
2017-06-24T02:42:51.753Z,0
2017-06-24T02:43:17.867Z,0
2017-06-24T02:43:43.996Z,0
2017-06-24T02:44:10.100Z,0
2017-06-24T02:44:36.188Z,0
2017-06-24T02:45:02.363Z,0
2017-06-24T02:45:28.473Z,0
2017-06-24T02:45:54.561Z,0
2017-06-24T02:46:20.658Z,0
2017-06-24T02:46:46.765Z,0
2017-06-24T02:47:12.857Z,0
2017-06-24T02:47:38.948Z,0
2017-06-24T02:48:05.053Z,0
2017-06-24T02:48:31.176Z,0
2017-06-24T02:48:57.283Z,0
2017-06-24T02:49:23.398Z,0
2017-06-24T02:49:49.494Z,0
2017-06-24T02:50:15.602Z,0
2017-06-24T02:50:41.697Z,0
2017-06-24T02:51:07.788Z,0
2017-06-24T02:51:33.894Z,0
2017-06-24T02:51:59.991Z,0
2017-06-24T02:52:26.103Z,0
2017-06-24T02:52:52.211Z,0
2017-06-24T02:53:18.369Z,0
2017-06-24T02:53:44.463Z,0
2017-06-24T02:54:10.558Z,0
2017-06-24T02:54:36.649Z,0
2017-06-24T02:55:02.788Z,0
2017-06-24T02:55:28.913Z,0
2017-06-24T02:55:55.004Z,0
2017-06-24T02:56:21.139Z,0
2017-06-24T02:56:47.239Z,0
2017-06-24T02:57:13.328Z,0
2017-06-24T02:57:39.434Z,0
2017-06-24T02:58:05.540Z,0
2017-06-24T02:58:31.628Z,0
2017-06-24T02:58:57.750Z,0
2017-06-24T02:59:23.856Z,0
2017-06-24T02:59:49.945Z,0
2017-06-24T03:00:16.040Z,0
2017-06-24T03:00:42.147Z,0
2017-06-24T03:01:08.264Z,0
2017-06-24T03:01:34.381Z,0
2017-06-24T03:02:00.514Z,0
2017-06-24T03:02:26.609Z,0
2017-06-24T03:02:52.698Z,0
2017-06-24T03:03:18.806Z,0
2017-06-24T03:03:44.935Z,0
2017-06-24T03:04:11.026Z,0
2017-06-24T03:04:37.127Z,0
2017-06-24T03:05:03.218Z,0
2017-06-24T03:05:29.327Z,0
2017-06-24T03:05:55.448Z,0
2017-06-24T03:06:21.539Z,0
2017-06-24T03:06:47.645Z,0
2017-06-24T03:07:13.745Z,0
2017-06-24T03:07:39.834Z,5
2017-06-24T03:08:05.936Z,5
2017-06-24T03:08:32.043Z,5
2017-06-24T03:08:58.157Z,5
2017-06-24T03:09:24.281Z,5
2017-06-24T03:09:50.387Z,5
2017-06-24T03:10:16.479Z,5
2017-06-24T03:10:42.609Z,5
2017-06-24T03:11:08.700Z,5
2017-06-24T03:11:34.804Z,5
2017-06-24T03:12:00.911Z,5
2017-06-24T03:12:26.999Z,5
2017-06-24T03:12:53.099Z,5
2017-06-24T03:13:19.231Z,5
2017-06-24T03:13:45.321Z,5
2017-06-24T03:14:11.418Z,5
2017-06-24T03:14:37.526Z,5
2017-06-24T03:15:03.621Z,5
2017-06-24T03:15:29.713Z,5
2017-06-24T03:15:55.816Z,5
2017-06-24T03:16:21.916Z,5
2017-06-24T03:16:48.022Z,5
2017-06-24T03:17:14.161Z,5
2017-06-24T03:17:40.256Z,5
2017-06-24T03:18:06.363Z,5
2017-06-24T03:18:32.485Z,5
2017-06-24T03:18:58.577Z,10
2017-06-24T03:19:24.715Z,10
2017-06-24T03:19:50.811Z,10
2017-06-24T03:20:16.898Z,10
2017-06-24T03:20:43.033Z,10
2017-06-24T03:21:09.134Z,10
2017-06-24T03:21:35.234Z,10
2017-06-24T03:22:01.353Z,10
2017-06-24T03:22:27.445Z,10
2017-06-24T03:22:53.555Z,10
2017-06-24T03:23:19.677Z,10
2017-06-24T03:23:45.793Z,10
2017-06-24T03:24:11.901Z,10
2017-06-24T03:24:38.001Z,10
2017-06-24T03:25:04.093Z,10
2017-06-24T03:25:30.194Z,10
2017-06-24T03:25:56.301Z,15
2017-06-24T03:26:22.388Z,15
2017-06-24T03:26:48.486Z,15
2017-06-24T03:27:14.607Z,15
2017-06-24T03:27:40.714Z,15
2017-06-24T03:28:06.869Z,15
2017-06-24T03:28:32.981Z,15
2017-06-24T03:28:59.085Z,15
2017-06-24T03:29:25.224Z,15
2017-06-24T03:29:51.334Z,15
2017-06-24T03:30:17.433Z,15
2017-06-24T03:30:43.538Z,15
2017-06-24T03:31:09.628Z,15
2017-06-24T03:31:35.722Z,15
2017-06-24T03:32:01.828Z,15
2017-06-24T03:32:27.915Z,20
2017-06-24T03:32:54.024Z,20
2017-06-24T03:33:20.134Z,20
2017-06-24T03:33:46.233Z,20
2017-06-24T03:34:12.338Z,20
2017-06-24T03:34:38.427Z,20
2017-06-24T03:35:04.521Z,20
2017-06-24T03:35:30.628Z,20
2017-06-24T03:35:56.718Z,20
2017-06-24T03:36:22.833Z,20
2017-06-24T03:36:48.943Z,20
2017-06-24T03:37:15.093Z,20
2017-06-24T03:37:41.204Z,20
2017-06-24T03:38:07.309Z,20
2017-06-24T03:38:33.428Z,25
2017-06-24T03:38:59.533Z,25
2017-06-24T03:39:25.627Z,25
2017-06-24T03:39:51.719Z,25
2017-06-24T03:40:17.882Z,25
2017-06-24T03:40:44.006Z,25
2017-06-24T03:41:10.121Z,25
2017-06-24T03:41:36.281Z,25
2017-06-24T03:42:02.382Z,25
2017-06-24T03:42:28.472Z,25
2017-06-24T03:42:54.576Z,25
2017-06-24T03:43:20.683Z,30
2017-06-24T03:43:46.795Z,30
2017-06-24T03:44:12.898Z,30
2017-06-24T03:44:39.030Z,30
2017-06-24T03:45:05.122Z,30
2017-06-24T03:45:31.220Z,30
2017-06-24T03:45:57.325Z,30
2017-06-24T03:46:23.418Z,30
2017-06-24T03:46:49.508Z,30
2017-06-24T03:47:15.618Z,35
2017-06-24T03:47:41.743Z,35
2017-06-24T03:48:07.833Z,35
2017-06-24T03:48:33.969Z,35
2017-06-24T03:49:00.068Z,35
2017-06-24T03:49:26.168Z,35
2017-06-24T03:49:52.259Z,35
2017-06-24T03:50:18.348Z,35
2017-06-24T03:50:44.456Z,35
2017-06-24T03:51:10.581Z,35
2017-06-24T03:51:36.699Z,35
2017-06-24T03:52:02.806Z,40
2017-06-24T03:52:28.905Z,40
2017-06-24T03:52:54.996Z,40
2017-06-24T03:53:21.123Z,40
2017-06-24T03:53:47.283Z,40
2017-06-24T03:54:13.370Z,40
2017-06-24T03:54:39.469Z,40
2017-06-24T03:55:05.588Z,40
2017-06-24T03:55:31.724Z,40
2017-06-24T03:55:57.852Z,40
2017-06-24T03:56:23.967Z,40
2017-06-24T03:56:50.069Z,40
2017-06-24T03:57:16.177Z,40
2017-06-24T03:57:42.292Z,40
2017-06-24T03:58:08.391Z,40
2017-06-24T03:58:34.497Z,40
2017-06-24T03:59:00.587Z,40
2017-06-24T03:59:26.682Z,40
2017-06-24T03:59:52.817Z,40
2017-06-24T04:00:18.911Z,40
2017-06-24T04:00:45.017Z,40
2017-06-24T04:01:11.104Z,40
2017-06-24T04:01:37.206Z,40
2017-06-24T04:02:03.313Z,40
2017-06-24T04:02:29.402Z,40
2017-06-24T04:02:55.500Z,40
2017-06-24T04:03:21.635Z,45
2017-06-24T04:03:47.730Z,45
2017-06-24T04:04:13.845Z,45
2017-06-24T04:04:39.981Z,45
2017-06-24T04:05:06.080Z,45
2017-06-24T04:05:32.173Z,45
2017-06-24T04:05:58.279Z,45
2017-06-24T04:06:24.424Z,45
2017-06-24T04:06:50.530Z,45
2017-06-24T04:07:16.623Z,45
2017-06-24T04:07:42.739Z,45
2017-06-24T04:08:08.847Z,45
2017-06-24T04:08:34.946Z,45
2017-06-24T04:09:01.037Z,45
2017-06-24T04:09:27.172Z,45
2017-06-24T04:09:53.332Z,45
2017-06-24T04:10:19.440Z,45
2017-06-24T04:10:45.541Z,45
2017-06-24T04:11:12.000Z,45
2017-06-24T04:11:38.094Z,45
2017-06-24T04:12:04.192Z,45
2017-06-24T04:12:30.283Z,45
2017-06-24T04:12:56.389Z,45
2017-06-24T04:13:22.490Z,45
2017-06-24T04:13:48.580Z,45
2017-06-24T04:14:14.682Z,45
2017-06-24T04:14:40.788Z,50
2017-06-24T04:15:06.875Z,50
2017-06-24T04:15:32.975Z,50
2017-06-24T04:15:59.081Z,50
2017-06-24T04:16:25.200Z,50
2017-06-24T04:16:51.321Z,50
2017-06-24T04:17:17.419Z,50
2017-06-24T04:17:43.521Z,50
2017-06-24T04:18:09.653Z,55
2017-06-24T04:18:35.741Z,55
2017-06-24T04:19:01.873Z,55
2017-06-24T04:19:27.972Z,55
2017-06-24T04:19:54.089Z,55
2017-06-24T04:20:20.208Z,55
2017-06-24T04:20:46.313Z,55
2017-06-24T04:21:12.405Z,55
2017-06-24T04:21:38.493Z,55
2017-06-24T04:22:04.630Z,60
2017-06-24T04:22:30.750Z,60
2017-06-24T04:22:56.854Z,65
2017-06-24T04:23:23.022Z,65
2017-06-24T04:23:49.146Z,70
2017-06-24T04:24:15.280Z,70
2017-06-24T04:24:41.372Z,70
2017-06-24T04:25:07.489Z,70
2017-06-24T04:25:33.649Z,70
2017-06-24T04:25:59.749Z,70
2017-06-24T04:26:25.886Z,70
2017-06-24T04:26:51.993Z,70
2017-06-24T04:27:18.093Z,75
2017-06-24T04:27:44.183Z,75
2017-06-24T04:28:10.287Z,70
2017-06-24T04:28:36.394Z,75
2017-06-24T04:29:02.480Z,75
2017-06-24T04:29:28.605Z,75
2017-06-24T04:29:54.711Z,75
2017-06-24T04:30:20.801Z,75
2017-06-24T04:30:46.922Z,80
2017-06-24T04:31:13.030Z,85
2017-06-24T04:31:39.123Z,80
2017-06-24T04:32:05.215Z,80
2017-06-24T04:32:31.325Z,80
2017-06-24T04:32:57.423Z,80
2017-06-24T04:33:23.514Z,80
2017-06-24T04:33:49.648Z,85
2017-06-24T04:34:15.741Z,85
2017-06-24T04:34:41.848Z,85
2017-06-24T04:35:07.940Z,90
2017-06-24T04:35:34.029Z,85
2017-06-24T04:36:00.139Z,85
2017-06-24T04:36:26.334Z,80
2017-06-24T04:36:52.448Z,80
2017-06-24T04:37:18.577Z,85
2017-06-24T04:37:44.678Z,85
2017-06-24T04:38:10.770Z,85
2017-06-24T04:38:36.874Z,85
2017-06-24T04:39:03.006Z,85
2017-06-24T04:39:29.121Z,90
2017-06-24T04:39:55.246Z,90
2017-06-24T04:40:21.337Z,90
2017-06-24T04:40:47.495Z,90
2017-06-24T04:41:13.595Z,90
2017-06-24T04:41:39.707Z,90
2017-06-24T04:42:05.835Z,95
2017-06-24T04:42:31.942Z,95
2017-06-24T04:42:58.079Z,100
2017-06-24T04:43:24.179Z,100
2017-06-24T04:43:50.342Z,100
2017-06-24T04:44:16.432Z,105
2017-06-24T04:44:42.529Z,105
2017-06-24T04:45:08.625Z,110
2017-06-24T04:45:34.728Z,115
2017-06-24T04:46:00.834Z,115
2017-06-24T04:46:26.994Z,115
2017-06-24T04:46:53.095Z,115
2017-06-24T04:47:19.202Z,120
2017-06-24T04:47:45.317Z,125
2017-06-24T04:48:11.412Z,125
2017-06-24T04:48:37.519Z,130
2017-06-24T04:49:03.635Z,135
2017-06-24T04:49:29.750Z,140
2017-06-24T04:49:55.860Z,140
2017-06-24T04:50:21.985Z,145
2017-06-24T04:50:48.112Z,150
2017-06-24T04:51:14.224Z,145
2017-06-24T04:51:40.322Z,145
2017-06-24T04:52:06.428Z,140
2017-06-24T04:52:32.545Z,135
2017-06-24T04:52:58.637Z,130
2017-06-24T04:53:24.745Z,130
2017-06-24T04:53:50.857Z,125
2017-06-24T04:54:16.933Z,135
2017-06-24T04:54:43.067Z,135
2017-06-24T04:55:09.195Z,130
2017-06-24T04:55:35.310Z,120
2017-06-24T04:56:01.437Z,120
2017-06-24T04:56:27.527Z,115
2017-06-24T04:56:53.638Z,110
2017-06-24T04:57:19.735Z,115
2017-06-24T04:57:45.826Z,105
2017-06-24T04:58:11.961Z,110
2017-06-24T04:58:38.087Z,120
2017-06-24T04:59:04.178Z,125
2017-06-24T04:59:30.281Z,120
2017-06-24T04:59:56.386Z,120
2017-06-24T05:00:22.474Z,115
2017-06-24T05:00:48.577Z,115
2017-06-24T05:01:14.683Z,110
2017-06-24T05:01:40.800Z,105
2017-06-24T05:02:06.903Z,105
2017-06-24T05:02:33.019Z,110
2017-06-24T05:02:59.123Z,110
2017-06-24T05:03:25.257Z,105
2017-06-24T05:03:51.348Z,100
2017-06-24T05:04:17.470Z,100
2017-06-24T05:04:43.575Z,100
2017-06-24T05:05:09.714Z,100
2017-06-24T05:05:35.838Z,100
2017-06-24T05:06:01.942Z,95
2017-06-24T05:06:28.034Z,95
2017-06-24T05:06:54.148Z,100
2017-06-24T05:07:20.250Z,105
2017-06-24T05:07:46.350Z,105
2017-06-24T05:08:12.456Z,110
2017-06-24T05:08:38.545Z,115
2017-06-24T05:09:04.643Z,120
2017-06-24T05:09:30.775Z,120
2017-06-24T05:09:56.872Z,120
2017-06-24T05:10:22.987Z,120
2017-06-24T05:10:49.125Z,125
2017-06-24T05:11:15.222Z,125
2017-06-24T05:11:41.613Z,125
2017-06-24T05:12:07.716Z,125
2017-06-24T05:12:33.817Z,120
2017-06-24T05:12:59.907Z,115
2017-06-24T05:13:26.036Z,115
2017-06-24T05:13:52.142Z,115
2017-06-24T05:14:18.258Z,110
2017-06-24T05:14:44.380Z,110
2017-06-24T05:15:10.485Z,110
2017-06-24T05:15:36.576Z,105
2017-06-24T05:16:02.672Z,100
2017-06-24T05:16:28.806Z,95
2017-06-24T05:16:54.929Z,95
2017-06-24T05:17:21.017Z,100
2017-06-24T05:17:47.127Z,100
2017-06-24T05:18:13.224Z,100
2017-06-24T05:18:39.352Z,105
2017-06-24T05:19:05.443Z,105
2017-06-24T05:19:31.566Z,105
2017-06-24T05:19:57.726Z,105
2017-06-24T05:20:23.817Z,100
2017-06-24T05:20:49.933Z,105
2017-06-24T05:21:16.043Z,105
2017-06-24T05:21:42.152Z,105
2017-06-24T05:22:08.282Z,110
2017-06-24T05:22:34.388Z,110
2017-06-24T05:23:00.489Z,120
2017-06-24T05:23:26.605Z,135
2017-06-24T05:23:52.732Z,145
2017-06-24T05:24:18.822Z,145
2017-06-24T05:24:44.932Z,145
2017-06-24T05:25:11.029Z,140
2017-06-24T05:25:37.120Z,140
2017-06-24T05:26:03.255Z,135
2017-06-24T05:26:29.380Z,140
2017-06-24T05:26:55.496Z,145
2017-06-24T05:27:21.602Z,150
2017-06-24T05:27:47.709Z,150
2017-06-24T05:28:13.798Z,155
2017-06-24T05:28:39.897Z,150
2017-06-24T05:29:06.003Z,155
2017-06-24T05:29:32.121Z,155
2017-06-24T05:29:58.248Z,155
2017-06-24T05:30:24.336Z,145
2017-06-24T05:30:50.440Z,145
2017-06-24T05:31:16.630Z,145
2017-06-24T05:31:42.717Z,150
2017-06-24T05:32:08.816Z,155
2017-06-24T05:32:34.950Z,160
2017-06-24T05:33:01.041Z,160
2017-06-24T05:33:27.162Z,160
2017-06-24T05:33:53.296Z,165
2017-06-24T05:34:19.419Z,170
2017-06-24T05:34:45.534Z,170
2017-06-24T05:35:11.634Z,180
2017-06-24T05:35:37.741Z,190
2017-06-24T05:36:03.842Z,205
2017-06-24T05:36:29.931Z,210
2017-06-24T05:36:56.027Z,215
2017-06-24T05:37:22.158Z,220
2017-06-24T05:37:48.251Z,215
2017-06-24T05:38:14.342Z,225
2017-06-24T05:38:40.451Z,235
2017-06-24T05:39:06.550Z,240
2017-06-24T05:39:32.663Z,240
2017-06-24T05:39:58.767Z,230
2017-06-24T05:40:24.867Z,230
2017-06-24T05:40:50.968Z,235
2017-06-24T05:41:17.095Z,230
2017-06-24T05:41:43.535Z,220
2017-06-24T05:42:09.670Z,220
2017-06-24T05:42:35.764Z,215
2017-06-24T05:43:01.856Z,205
2017-06-24T05:43:27.963Z,190
2017-06-24T05:43:54.064Z,180
2017-06-24T05:44:20.157Z,190
2017-06-24T05:44:46.309Z,195
2017-06-24T05:45:12.415Z,200
2017-06-24T05:45:38.503Z,200
2017-06-24T05:46:04.630Z,195
2017-06-24T05:46:30.752Z,180
2017-06-24T05:46:56.884Z,175
2017-06-24T05:47:23.013Z,175
2017-06-24T05:47:49.103Z,175
2017-06-24T05:48:15.233Z,175
2017-06-24T05:48:41.368Z,170
2017-06-24T05:49:07.456Z,170
2017-06-24T05:49:33.557Z,170
2017-06-24T05:49:59.663Z,170
2017-06-24T05:50:25.803Z,175
2017-06-24T05:50:51.898Z,180
2017-06-24T05:51:18.033Z,190
2017-06-24T05:51:44.128Z,205
2017-06-24T05:52:10.285Z,195
2017-06-24T05:52:36.373Z,170
2017-06-24T05:53:02.472Z,150
2017-06-24T05:53:28.605Z,140
2017-06-24T05:53:54.723Z,125
2017-06-24T05:54:20.842Z,120
2017-06-24T05:54:46.949Z,120
2017-06-24T05:55:13.042Z,125
2017-06-24T05:55:39.132Z,125
2017-06-24T05:56:05.242Z,125
2017-06-24T05:56:31.366Z,120
2017-06-24T05:56:57.457Z,125
2017-06-24T05:57:23.586Z,140
2017-06-24T05:57:49.687Z,160
2017-06-24T05:58:15.799Z,185
2017-06-24T05:58:41.928Z,205
2017-06-24T05:59:08.034Z,205
2017-06-24T05:59:34.123Z,200
2017-06-24T06:00:00.220Z,190
2017-06-24T06:00:26.326Z,195
2017-06-24T06:00:52.415Z,210
2017-06-24T06:01:18.535Z,210
2017-06-24T06:01:44.640Z,195
2017-06-24T06:02:10.731Z,180
2017-06-24T06:02:36.821Z,185
2017-06-24T06:03:02.951Z,195
2017-06-24T06:03:29.051Z,200
2017-06-24T06:03:55.156Z,215
2017-06-24T06:04:21.246Z,215
2017-06-24T06:04:47.343Z,220
2017-06-24T06:05:13.451Z,225
2017-06-24T06:05:39.545Z,230
2017-06-24T06:06:05.636Z,230
2017-06-24T06:06:31.774Z,225
2017-06-24T06:06:57.870Z,220
2017-06-24T06:07:24.011Z,225
2017-06-24T06:07:50.116Z,235
2017-06-24T06:08:16.241Z,245
2017-06-24T06:08:42.343Z,240
2017-06-24T06:09:08.437Z,240
2017-06-24T06:09:34.551Z,245
2017-06-24T06:10:00.662Z,245
2017-06-24T06:10:26.760Z,240
2017-06-24T06:10:52.876Z,235
2017-06-24T06:11:19.011Z,225
2017-06-24T06:11:45.112Z,220
2017-06-24T06:12:11.204Z,225
2017-06-24T06:12:37.308Z,240
2017-06-24T06:13:03.441Z,245
2017-06-24T06:13:29.552Z,240
2017-06-24T06:13:55.653Z,230
2017-06-24T06:14:21.774Z,215
2017-06-24T06:14:47.901Z,210
2017-06-24T06:15:14.016Z,215
2017-06-24T06:15:40.119Z,225
2017-06-24T06:16:06.250Z,230